Latest Coastal Weather Observations for Friendly Beaches

IDT60701

Issued at 6:12 am EDT Saturday 10 December 2016 (issued every 10 minutes, with the page automatically refreshed every 10 minutes)

About coastal observations | Map of coastal stations | Coastal observations for TAS | Marine services | Other Formats
Station Details ID: 092114 Name: FRIENDLY BEACHES Lat: -42.00 Lon: 148.28 Height: 55.0 m
Data from the previous 72 hours. | See also: Recent months at Friendly Beaches
Date/Time
EDT
Temp
°C
Wind Pressure Rain since
9am
mm
Weather Cloud Vis
km
Sea
Height
m
Swell
Dir  Spd
kts
Gust
kts
hPa Trend Height
m
Period
s
Dir
10/06:00am 9.9 WSW 2 3 1015.7 - 0.0 - - - - - - -
10/05:30am 9.1 N 3 4 1015.7 - 0.0 - - - - - - -
10/05:00am 9.8 WNW 3 6 1015.5 - 0.0 - - - - - - -
10/04:30am 9.5 W 4 8 1015.2 - 0.0 - - - - - - -
10/04:00am 9.6 WSW 5 9 1015.2 - 0.0 - - - - - - -
10/03:30am 9.5 W 6 8 1015.0 - 0.0 - - - - - - -
10/03:00am 9.4 W 5 7 1015.1 - 0.0 - - - - - - -
10/02:30am 9.4 WNW 4 7 1015.2 - 0.0 - - - - - - -
10/02:00am 9.8 W 6 9 1015.4 - 0.0 - - - - - - -
10/01:30am 9.7 W 5 8 1015.5 - 0.0 - - - - - - -
10/01:00am 9.5 W 5 9 1015.6 - 0.0 - - - - - - -
10/12:30am 10.1 W 5 8 1015.9 - 0.0 - - - - - - -
10/12:00am 9.8 WNW 4 7 1015.6 - 0.0 - - - - - - -
 
Date/Time
EDT
Temp
°C
Wind Pressure Rain since
9am
mm
Weather Cloud Vis
km
Sea
Height
m
Swell
Dir  Spd
kts
Gust
kts
hPa Trend Height
m
Period
s
Dir
09/11:30pm 10.3 W 5 9 1015.6 - 0.0 - - - - - - -
09/11:00pm 10.7 WNW 4 7 1015.5 - 0.0 - - - - - - -
09/10:30pm 11.6 WSW 8 14 1015.3 - 0.0 - - - - - - -
09/10:00pm 12.1 SW 10 16 1015.2 - 0.0 - - - - - - -
09/09:30pm 12.6 WSW 10 16 1014.7 - 0.0 - - - - - - -
09/09:00pm 12.8 WSW 10 18 1014.0 - 0.0 - - - - - - -
09/08:30pm 13.3 WSW 10 19 1013.5 - 0.0 - - - - - - -
09/08:00pm 14.0 WSW 11 20 1012.8 - 0.0 - - - - - - -
09/07:30pm 14.3 WSW 11 18 1012.2 - 0.0 - - - - - - -
09/07:00pm 15.4 WSW 12 19 1011.6 - 0.0 - - - - - - -
09/06:30pm 15.3 SSW 7 13 1011.0 - 0.0 - - - - - - -
09/06:00pm 16.5 SW 6 12 1010.3 - 0.0 - - - - - - -
09/05:30pm 15.2 S 8 13 1010.0 - 0.0 - - - - - - -
09/05:00pm 15.5 SSW 10 16 1009.5 - 0.0 - - - - - - -
09/04:30pm 16.1 S 10 18 1009.2 - 0.0 - - - - - - -
09/04:00pm 15.6 S 9 17 1008.9 - 0.0 - - - - - - -
09/03:30pm 15.6 SSW 12 20 1008.6 - 0.0 - - - - - - -
09/03:00pm 15.9 SW 13 21 1008.0 - 0.0 - - - - - - -
09/02:30pm 16.5 SSW 13 22 1007.5 - 0.0 - - - - - - -
09/02:20pm 16.9 SSW 15 26 1007.4 - 0.0 - - - - - - -
09/02:00pm 15.7 SW 13 23 1007.4 - 0.0 - - - - - - -
09/01:30pm 14.9 SSW 11 21 1007.3 - 0.0 - - - - - - -
09/01:13pm 14.8 SSW 15 25 1007.2 - 0.0 - - - - - - -
09/01:00pm 15.5 SW 11 19 1007.2 - 0.0 - - - - - - -
09/12:30pm 14.6 SW 13 21 1006.9 - 0.0 - - - - - - -
09/12:10pm 15.9 SW 15 26 1006.6 - 0.0 - - - - - - -
09/12:00pm 14.3 SW 11 19 1006.7 - 0.0 - - - - - - -
09/11:30am 15.2 SSW 12 23 1006.3 - 0.0 - - - - - - -
09/11:00am 12.9 SSW 11 23 1006.1 - 0.0 - - - - - - -
09/10:30am 15.1 SSW 12 21 1005.7 - 0.0 - - - - - - -
09/10:00am 13.7 SW 14 21 1005.4 - 0.0 - - - - - - -
09/09:43am 13.2 SW 15 28 1005.3 - 0.0 - - - - - - -
09/09:30am 11.4 SW 13 21 1005.0 - 0.0 - - - - - - -
09/09:21am 12.3 SW 15 25 1004.7 - 0.0 - - - - - - -
09/09:00am 12.0 SW 13 23 1004.5 - - - - - - - - -
09/08:30am 12.1 SW 12 21 1003.9 - - - - - - - - -
09/08:00am 11.8 SW 11 19 1003.3 - - - - - - - - -
09/07:30am 10.1 WSW 11 18 1002.6 - - - - - - - - -
09/07:00am 9.8 WSW 12 21 1001.4 - - - - - - - - -
09/06:30am 9.8 SW 13 21 1000.4 - - - - - - - - -
09/06:00am 10.2 WSW 16 29 999.2 - - - - - - - - -
09/05:30am 10.4 WSW 16 28 998.4 - - - - - - - - -
09/05:00am 10.7 WSW 15 27 997.6 - - - - - - - - -
09/04:45am 10.8 WSW 15 32 997.3 - - - - - - - - -
09/04:30am 10.9 SW 14 22 997.1 - - - - - - - - -
09/04:00am 11.1 WSW 12 25 996.4 - - - - - - - - -
09/03:30am 11.4 WSW 13 22 995.5 - - - - - - - - -
09/03:15am 11.5 WSW 15 28 995.1 - - - - - - - - -
09/03:00am 11.6 WSW 14 22 994.9 - 0.0 - - - - - - -
09/02:45am 11.8 WSW 15 26 994.4 - - - - - - - - -
09/02:30am 12.1 WSW 15 23 994.3 - - - - - - - - -
09/02:02am 12.7 WSW 15 26 993.9 - - - - - - - - -
09/02:00am 12.7 WSW 14 26 993.8 - - - - - - - - -
09/01:30am 13.3 WSW 15 25 993.1 - - - - - - - - -
09/01:03am 13.8 WSW 15 26 992.1 - - - - - - - - -
09/01:00am 13.9 WSW 16 26 991.9 - - - - - - - - -
09/12:30am 14.4 WSW 17 28 991.0 - - - - - - - - -
09/12:09am 14.9 WSW 15 26 990.1 - - - - - - - - -
09/12:00am 15.0 W 12 23 989.8 - - - - - - - - -
 
Date/Time
EDT
Temp
°C
Wind Pressure Rain since
9am
mm
Weather Cloud Vis
km
Sea
Height
m
Swell
Dir  Spd
kts
Gust
kts
hPa Trend Height
m
Period
s
Dir
08/11:30pm 15.0 W 13 21 988.7 - - - - - - - - -
08/11:00pm 14.9 WNW 12 19 987.8 - - - - - - - - -
08/10:32pm 15.0 WNW 15 32 987.1 - - - - - - - - -
08/10:30pm 15.1 WNW 14 24 987.1 - - - - - - - - -
08/10:00pm 15.0 WNW 15 27 986.7 - - - - - - - - -
08/09:30pm 15.3 WNW 15 25 985.6 - - - - - - - - -
08/09:05pm 15.8 WNW 15 26 986.1 - - - - - - - - -
08/09:00pm 15.8 WNW 13 26 986.1 - 0.0 - - - - - - -
08/08:46pm 16.0 WNW 15 26 985.8 - - - - - - - - -
08/08:30pm 16.3 NW 11 21 985.5 - - - - - - - - -
08/08:00pm 17.1 NW 9 21 984.9 - - - - - - - - -
08/07:30pm 18.8 NW 6 13 985.0 - - - - - - - - -
08/07:00pm 18.6 NNW 7 15 984.3 - - - - - - - - -
08/06:30pm 19.2 NNW 13 24 984.2 - - - - - - - - -
08/06:00pm 19.6 NNW 13 23 984.5 - - - - - - - - -
08/05:30pm 20.3 N 15 29 985.1 - - - - - - - - -
08/05:05pm 20.6 NNW 16 38 985.5 - - - - - - - - -
08/05:00pm 20.4 NNW 15 26 985.5 - - - - - - - - -
08/04:30pm 21.1 NNW 14 26 986.1 - - - - - - - - -
08/04:00pm 21.4 NNW 11 20 986.2 - - - - - - - - -
08/03:34pm 19.9 NNE 15 25 986.6 - - - - - - - - -
08/03:30pm 19.2 NNE 17 25 986.5 - - - - - - - - -
08/03:10pm 18.9 NNE 16 26 986.9 - - - - - - - - -
08/03:00pm 18.8 NNE 16 25 987.3 - - - - - - - - -
08/02:30pm 17.6 NNE 20 31 988.1 - - - - - - - - -
08/02:00pm 18.0 NNE 20 33 988.8 - - - - - - - - -
08/01:30pm 18.0 N 21 35 989.1 - - - - - - - - -
08/01:00pm 15.7 N 20 33 989.6 - - - - - - - - -
08/12:30pm 15.1 N 17 27 989.8 - - - - - - - - -
08/12:06pm 15.7 N 16 26 990.4 - - - - - - - - -
08/12:00pm 16.0 N 14 24 990.8 - - Rain - - - - - -
08/11:30am 16.7 N 14 27 991.6 - - - - - - - - -
08/11:00am 16.5 N 18 30 991.6 - - - - - - - - -
08/10:34am 15.8 N 16 28 993.0 - - - - - - - - -
08/10:30am 15.6 N 16 25 993.4 - - - - - - - - -
08/10:15am 15.8 N 15 26 993.7 - - - - - - - - -
08/09:00am 16.2 N 14 - 997.0 - - - - - - - - -
08/08:30am 15.4 NNE 12 20 997.4 - 0.0 - - - - - - -
08/08:00am 16.3 N 9 15 998.2 - 0.0 - - - - - - -
08/07:30am 15.8 N 9 19 998.6 - 0.0 - - - - - - -
08/07:00am 15.1 N 6 14 999.7 - 0.0 - - - - - - -
08/06:30am 14.3 N 13 21 999.2 - 0.0 - - - - - - -
08/06:00am 13.9 N 7 15 1000.0 - 0.0 - - - - - - -
08/05:30am 13.8 NNE 5 9 1001.1 - 0.0 - - - - - - -
08/05:00am 13.3 N 7 10 1001.6 - 0.0 - - - - - - -
08/04:30am 13.3 N 7 11 1001.9 - 0.0 - - - - - - -
08/04:00am 13.6 N 10 15 1002.3 - 0.0 - - - - - - -
08/03:30am 13.8 N 10 17 1002.7 - 0.0 - - - - - - -
08/03:00am 12.4 N 4 6 1003.4 - 0.0 - - - - - - -
08/02:30am 12.9 N 4 8 1004.1 - 0.0 - - - - - - -
08/02:00am 13.3 N 5 8 1004.6 - 0.0 - - - - - - -
08/01:30am 13.3 E 2 3 1004.9 - 0.0 - - - - - - -
08/01:00am 13.5 ENE 2 3 1005.8 - 0.0 - - - - - - -
08/12:30am 13.9 NW 3 4 1006.3 - 0.0 - - - - - - -
08/12:00am 15.1 NW 3 5 1006.6 - 0.0 - - - - - - -
 
Date/Time
EDT
Temp
°C
Wind Pressure Rain since
9am
mm
Weather Cloud Vis
km
Sea
Height
m
Swell
Dir  Spd
kts
Gust
kts
hPa Trend Height
m
Period
s
Dir
07/11:30pm 15.9 NW 6 9 1006.9 - 0.0 - - - - - - -
07/11:00pm 16.1 NW 4 6 1006.9 - 0.0 - - - - - - -
07/10:30pm 16.6 NW 7 11 1007.2 - 0.0 - - - - - - -
07/10:00pm 15.6 WNW 5 6 1007.8 - 0.0 - - - - - - -
07/09:30pm 16.3 NW 5 8 1007.8 - 0.0 - - - - - - -
07/09:00pm 16.5 WNW 6 9 1008.0 - 0.0 - - - - - - -
07/08:30pm 17.2 WNW 4 7 1007.9 - 0.0 - - - - - - -
07/08:00pm 18.2 W 5 8 1008.0 - 0.0 - - - - - - -
07/07:30pm 19.2 WNW 6 11 1008.1 - 0.0 - - - - - - -
07/07:00pm 20.4 WNW 6 11 1008.0 - 0.0 - - - - - - -
07/06:30pm 20.4 N 3 5 1008.2 - 0.0 - - - - - - -
07/06:00pm 19.9 NNE 3 7 1008.2 - 0.0 - - - - - - -
07/05:30pm 19.1 NNE 7 9 1008.2 - 0.0 - - - - - - -
07/05:00pm 19.8 NNE 9 15 1008.3 - 0.0 - - - - - - -
07/04:30pm 19.6 NE 9 14 1008.8 - 0.0 - - - - - - -
07/04:00pm 19.9 NNE 13 19 1009.1 - 0.0 - - - - - - -
07/03:30pm 20.0 NNE 13 20 1009.3 - 0.0 - - - - - - -
07/03:00pm 20.9 NNE 12 19 1009.4 - 0.0 - - - - - - -
07/02:30pm 21.4 NNE 12 19 1009.6 - 0.0 - - - - - - -
07/02:00pm 21.6 NNE 14 21 1009.7 - 0.0 - - - - - - -
07/01:30pm 21.8 NNE 15 21 1009.9 - 0.0 - - - - - - -
07/01:00pm 22.4 NNE 13 20 1010.3 - 0.0 - - - - - - -
07/12:30pm 20.4 NE 11 16 1010.6 - 0.0 - - - - - - -
07/12:00pm 20.5 NNE 12 18 1010.9 - 0.0 - - - - - - -
07/11:30am 20.8 NNE 11 18 1011.2 - 0.0 - - - - - - -
07/11:00am 19.6 NE 10 14 1011.5 - 0.0 - - - - - - -
07/10:30am 18.6 NE 8 12 1011.8 - 0.0 - - - - - - -
07/10:00am 18.0 NE 6 8 1011.8 - 0.0 - - - - - - -
07/09:30am 17.7 ENE 4 7 1012.0 - 0.0 - - - - - - -
07/09:00am 17.8 NNW 6 9 1012.1 - 0.0 - - - - - - -
07/08:30am 16.5 WNW 6 11 1012.1 - 0.0 - - - - - - -
07/08:00am 15.1 WNW 7 11 1011.9 - 0.0 - - - - - - -
07/07:30am 13.9 W 5 9 1011.9 - 0.0 - - - - - - -
07/07:00am 12.6 W 2 5 1011.9 - 0.0 - - - - - - -
07/06:30am 11.1 W 3 4 1011.6 - 0.0 - - - - - - -

Other Formats:

Comma delimited format used in spreadsheet applications
http://www.bom.gov.au/fwo/IDT60701/IDT60701.94987.axf

JavaScript Object Notation format (JSON) in row-major order
http://www.bom.gov.au/fwo/IDT60701/IDT60701.94987.json